Time,TemperatureF,DewpointF,PressureIn,WindDirection,WindDirectionDegrees,WindSpeedMPH,WindSpeedGustMPH,Humidity,HourlyPrecipIn,Conditions,Clouds,dailyrainin,SoftwareType,DateUTC
2013-08-31 00:01:00,77.7,75.2,29.93,ENE,67,7.0,9.0,92,0.00,,,0.00,WUHU216DAVISVP2,2013-08-31 04:01:00,
2013-08-31 00:06:00,77.9,75.7,29.93,NE,44,8.0,10.0,93,0.00,,,0.00,WUHU216DAVISVP2,2013-08-31 04:06:00,
2013-08-31 00:11:00,77.8,75.6,29.93,ENE,61,9.0,11.0,93,0.00,,,0.00,WUHU216DAVISVP2,2013-08-31 04:11:00,
2013-08-31 00:16:00,77.8,75.6,29.93,ENE,58,10.0,11.0,93,0.00,,,0.00,WUHU216DAVISVP2,2013-08-31 04:16:00,
2013-08-31 00:21:00,77.8,75.6,29.93,NE,54,8.0,11.0,93,0.00,,,0.00,WUHU216DAVISVP2,2013-08-31 04:21:00,
2013-08-31 00:26:00,77.8,75.6,29.92,East,82,7.0,11.0,93,0.00,,,0.00,WUHU216DAVISVP2,2013-08-31 04:26:00,
2013-08-31 00:31:00,77.7,75.5,29.93,ENE,68,8.0,11.0,93,0.00,,,0.00,WUHU216DAVISVP2,2013-08-31 04:31:00,
2013-08-31 00:36:00,77.8,75.6,29.93,ENE,68,8.0,10.0,93,0.00,,,0.00,WUHU216DAVISVP2,2013-08-31 04:36:00,
2013-08-31 00:41:00,77.7,75.5,29.93,ENE,74,8.0,10.0,93,0.00,,,0.00,WUHU216DAVISVP2,2013-08-31 04:41:00,
2013-08-31 00:46:00,77.7,75.5,29.93,ENE,64,8.0,9.0,93,0.00,,,0.00,WUHU216DAVISVP2,2013-08-31 04:46:00,
2013-08-31 00:51:00,77.8,75.6,29.93,ENE,69,7.0,9.0,93,0.00,,,0.00,WUHU216DAVISVP2,2013-08-31 04:51:00,
2013-08-31 00:56:00,77.8,75.6,29.92,NE,53,4.0,8.0,93,0.00,,,0.00,WUHU216DAVISVP2,2013-08-31 04:56:00,
2013-08-31 01:01:00,77.9,75.4,29.92,ENE,72,7.0,8.0,92,0.00,,,0.00,WUHU216DAVISVP2,2013-08-31 05:01:00,
2013-08-31 01:06:00,77.8,75.6,29.92,ENE,64,8.0,10.0,93,0.00,,,0.00,WUHU216DAVISVP2,2013-08-31 05:06:00,
2013-08-31 01:11:00,77.9,75.7,29.92,ENE,68,8.0,10.0,93,0.00,,,0.00,WUHU216DAVISVP2,2013-08-31 05:11:00,
2013-08-31 01:16:00,77.9,75.7,29.92,East,98,9.0,10.0,93,0.00,,,0.00,WUHU216DAVISVP2,2013-08-31 05:16:00,
2013-08-31 01:21:00,77.9,75.4,29.92,ENE,65,8.0,10.0,92,0.00,,,0.00,WUHU216DAVISVP2,2013-08-31 05:21:00,
2013-08-31 01:26:00,78.0,75.8,29.92,ENE,72,8.0,10.0,93,0.00,,,0.00,WUHU216DAVISVP2,2013-08-31 05:26:00,
2013-08-31 01:31:00,78.0,75.8,29.92,East,87,6.0,10.0,93,0.00,,,0.00,WUHU216DAVISVP2,2013-08-31 05:31:00,
2013-08-31 01:36:00,78.0,75.8,29.92,ENE,58,6.0,10.0,93,0.00,,,0.00,WUHU216DAVISVP2,2013-08-31 05:36:00,
2013-08-31 01:41:00,78.0,75.5,29.92,ENE,68,5.0,10.0,92,0.00,,,0.00,WUHU216DAVISVP2,2013-08-31 05:41:00,
2013-08-31 01:46:00,78.0,75.5,29.92,ENE,77,6.0,9.0,92,0.00,,,0.00,WUHU216DAVISVP2,2013-08-31 05:46:00,
2013-08-31 01:51:00,77.9,75.4,29.92,East,95,7.0,9.0,92,0.00,,,0.00,WUHU216DAVISVP2,2013-08-31 05:51:00,
2013-08-31 01:56:00,77.9,75.0,29.92,East,79,8.0,9.0,91,0.00,,,0.00,WUHU216DAVISVP2,2013-08-31 05:56:00,
2013-08-31 02:01:00,77.9,75.0,29.92,ESE,119,9.0,9.0,91,0.00,,,0.00,WUHU216DAVISVP2,2013-08-31 06:01:00,
2013-08-31 02:06:00,78.1,75.2,29.92,East,96,8.0,9.0,91,0.00,,,0.00,WUHU216DAVISVP2,2013-08-31 06:06:00,
2013-08-31 02:11:00,78.1,75.2,29.92,ESE,104,8.0,9.0,91,0.00,,,0.00,WUHU216DAVISVP2,2013-08-31 06:11:00,
2013-08-31 02:16:00,78.1,75.3,29.92,ENE,58,7.0,9.0,91,0.00,,,0.00,WUHU216DAVISVP2,2013-08-31 06:16:00,
2013-08-31 02:21:00,78.2,75.4,29.91,East,86,7.0,9.0,91,0.00,,,0.00,WUHU216DAVISVP2,2013-08-31 06:21:00,
2013-08-31 02:26:00,78.2,75.4,29.91,ESE,108,8.0,9.0,91,0.00,,,0.00,WUHU216DAVISVP2,2013-08-31 06:26:00,
2013-08-31 02:31:00,78.2,75.0,29.91,SE,125,7.0,9.0,90,0.00,,,0.00,WUHU216DAVISVP2,2013-08-31 06:31:00,
2013-08-31 02:36:00,78.3,75.1,29.91,East,87,5.0,9.0,90,0.00,,,0.00,WUHU216DAVISVP2,2013-08-31 06:36:00,
2013-08-31 02:41:00,78.3,75.1,29.91,East,86,6.0,9.0,90,0.00,,,0.00,WUHU216DAVISVP2,2013-08-31 06:41:00,
2013-08-31 02:46:00,78.3,75.1,29.91,NNE,30,5.0,9.0,90,0.00,,,0.00,WUHU216DAVISVP2,2013-08-31 06:46:00,
2013-08-31 02:51:00,78.3,75.1,29.91,East,88,7.0,9.0,90,0.00,,,0.00,WUHU216DAVISVP2,2013-08-31 06:51:00,
2013-08-31 02:56:00,78.3,75.1,29.91,East,95,6.0,9.0,90,0.00,,,0.00,WUHU216DAVISVP2,2013-08-31 06:56:00,
2013-08-31 03:01:00,78.3,74.8,29.91,East,91,7.0,9.0,89,0.00,,,0.00,WUHU216DAVISVP2,2013-08-31 07:01:00,
2013-08-31 03:06:00,78.3,74.8,29.90,ENE,58,7.0,9.0,89,0.00,,,0.00,WUHU216DAVISVP2,2013-08-31 07:06:00,
2013-08-31 03:11:00,78.4,74.9,29.90,East,81,8.0,9.0,89,0.00,,,0.00,WUHU216DAVISVP2,2013-08-31 07:11:00,
2013-08-31 03:16:00,78.4,74.9,29.90,East,84,7.0,9.0,89,0.00,,,0.00,WUHU216DAVISVP2,2013-08-31 07:16:00,
2013-08-31 03:21:00,78.4,74.9,29.90,East,96,9.0,9.0,89,0.00,,,0.00,WUHU216DAVISVP2,2013-08-31 07:21:00,
2013-08-31 03:26:00,78.4,74.9,29.90,ESE,103,7.0,9.0,89,0.00,,,0.00,WUHU216DAVISVP2,2013-08-31 07:26:00,
2013-08-31 03:31:00,78.4,74.9,29.90,ESE,109,6.0,9.0,89,0.00,,,0.00,WUHU216DAVISVP2,2013-08-31 07:31:00,
2013-08-31 03:36:00,78.4,74.9,29.90,ESE,115,8.0,9.0,89,0.00,,,0.00,WUHU216DAVISVP2,2013-08-31 07:36:00,
2013-08-31 03:41:00,78.4,74.9,29.90,East,96,8.0,9.0,89,0.00,,,0.00,WUHU216DAVISVP2,2013-08-31 07:41:00,
2013-08-31 03:46:00,78.4,75.2,29.90,ESE,103,6.0,9.0,90,0.00,,,0.00,WUHU216DAVISVP2,2013-08-31 07:46:00,
2013-08-31 03:51:00,78.4,75.2,29.90,ESE,111,6.0,9.0,90,0.00,,,0.00,WUHU216DAVISVP2,2013-08-31 07:51:00,
2013-08-31 03:56:00,78.4,74.9,29.90,East,86,4.0,9.0,89,0.00,,,0.00,WUHU216DAVISVP2,2013-08-31 07:56:00,
2013-08-31 04:01:00,78.4,75.2,29.90,ENE,63,7.0,9.0,90,0.00,,,0.00,WUHU216DAVISVP2,2013-08-31 08:01:00,
2013-08-31 04:06:00,78.4,75.2,29.90,ESE,121,6.0,8.0,90,0.00,,,0.00,WUHU216DAVISVP2,2013-08-31 08:06:00,
2013-08-31 04:11:00,78.3,74.8,29.90,East,84,5.0,8.0,89,0.00,,,0.00,WUHU216DAVISVP2,2013-08-31 08:11:00,
2013-08-31 04:16:00,78.3,75.1,29.90,ENE,64,5.0,8.0,90,0.00,,,0.00,WUHU216DAVISVP2,2013-08-31 08:16:00,
2013-08-31 04:21:00,78.4,75.2,29.91,ENE,58,5.0,8.0,90,0.00,,,0.00,WUHU216DAVISVP2,2013-08-31 08:21:00,
2013-08-31 04:26:00,78.4,75.2,29.90,East,82,5.0,7.0,90,0.00,,,0.00,WUHU216DAVISVP2,2013-08-31 08:26:00,
2013-08-31 04:31:00,78.3,74.8,29.90,ENE,60,5.0,7.0,89,0.00,,,0.00,WUHU216DAVISVP2,2013-08-31 08:31:00,
2013-08-31 04:36:00,78.3,75.1,29.90,NE,39,5.0,7.0,90,0.00,,,0.00,WUHU216DAVISVP2,2013-08-31 08:36:00,
2013-08-31 04:41:00,78.4,75.2,29.90,NE,54,3.0,8.0,90,0.00,,,0.00,WUHU216DAVISVP2,2013-08-31 08:41:00,
2013-08-31 04:46:00,78.4,75.2,29.91,NE,53,7.0,8.0,90,0.00,,,0.00,WUHU216DAVISVP2,2013-08-31 08:46:00,
2013-08-31 04:51:00,78.3,75.1,29.91,ENE,67,4.0,8.0,90,0.00,,,0.00,WUHU216DAVISVP2,2013-08-31 08:51:00,
2013-08-31 04:56:00,78.3,75.1,29.91,ENE,66,5.0,8.0,90,0.00,,,0.00,WUHU216DAVISVP2,2013-08-31 08:56:00,
2013-08-31 05:01:00,78.3,75.1,29.91,ENE,63,5.0,7.0,90,0.00,,,0.00,WUHU216DAVISVP2,2013-08-31 09:01:00,
2013-08-31 05:06:00,78.3,75.1,29.91,NE,54,6.0,7.0,90,0.00,,,0.00,WUHU216DAVISVP2,2013-08-31 09:06:00,
2013-08-31 05:11:00,78.3,75.1,29.91,ENE,58,5.0,7.0,90,0.00,,,0.00,WUHU216DAVISVP2,2013-08-31 09:11:00,
2013-08-31 05:16:00,78.3,75.1,29.91,NE,48,5.0,8.0,90,0.00,,,0.00,WUHU216DAVISVP2,2013-08-31 09:16:00,
2013-08-31 05:21:00,77.9,74.1,29.92,NW,316,3.0,8.0,88,0.00,,,0.00,WUHU216DAVISVP2,2013-08-31 09:21:00,
2013-08-31 05:26:00,76.6,73.4,29.92,North,355,3.0,8.0,90,0.00,,,0.00,WUHU216DAVISVP2,2013-08-31 09:26:00,
2013-08-31 05:31:00,76.0,73.2,29.92,North,355,2.0,8.0,91,0.00,,,0.00,WUHU216DAVISVP2,2013-08-31 09:31:00,
2013-08-31 05:36:00,75.7,73.2,29.92,NNW,335,2.0,5.0,92,0.00,,,0.00,WUHU216DAVISVP2,2013-08-31 09:36:00,
2013-08-31 05:41:00,75.5,73.0,29.91,NW,326,2.0,4.0,92,0.00,,,0.00,WUHU216DAVISVP2,2013-08-31 09:41:00,
2013-08-31 05:46:00,75.3,72.8,29.92,NW,319,4.0,4.0,92,0.00,,,0.00,WUHU216DAVISVP2,2013-08-31 09:46:00,
2013-08-31 05:51:00,75.2,73.0,29.92,NW,314,1.0,4.0,93,0.00,,,0.00,WUHU216DAVISVP2,2013-08-31 09:51:00,
2013-08-31 05:56:00,75.3,73.1,29.92,North,4,1.0,5.0,93,0.00,,,0.00,WUHU216DAVISVP2,2013-08-31 09:56:00,
2013-08-31 06:01:00,75.5,73.3,29.92,NE,34,3.0,5.0,93,0.00,,,0.00,WUHU216DAVISVP2,2013-08-31 10:01:00,
2013-08-31 06:06:00,75.6,73.4,29.92,NE,44,2.0,5.0,93,0.00,,,0.00,WUHU216DAVISVP2,2013-08-31 10:06:00,
2013-08-31 06:11:00,75.8,73.9,29.92,NE,47,3.0,5.0,94,0.00,,,0.00,WUHU216DAVISVP2,2013-08-31 10:11:00,
2013-08-31 06:16:00,75.9,74.0,29.92,NNE,25,1.0,4.0,94,0.00,,,0.00,WUHU216DAVISVP2,2013-08-31 10:16:00,
2013-08-31 06:21:00,75.9,74.0,29.92,NE,34,3.0,4.0,94,0.00,,,0.00,WUHU216DAVISVP2,2013-08-31 10:21:00,
2013-08-31 06:26:00,76.2,74.3,29.92,NE,44,4.0,6.0,94,0.00,,,0.00,WUHU216DAVISVP2,2013-08-31 10:26:00,
2013-08-31 06:31:00,76.3,74.4,29.92,NE,39,1.0,6.0,94,0.00,,,0.00,WUHU216DAVISVP2,2013-08-31 10:31:00,
2013-08-31 06:36:00,76.1,73.9,29.92,NNE,18,2.0,6.0,93,0.00,,,0.00,WUHU216DAVISVP2,2013-08-31 10:36:00,
2013-08-31 06:41:00,75.7,73.5,29.92,NE,56,4.0,6.0,93,0.00,,,0.00,WUHU216DAVISVP2,2013-08-31 10:41:00,
2013-08-31 06:46:00,76.4,74.5,29.92,ENE,58,9.0,10.0,94,0.00,,,0.00,WUHU216DAVISVP2,2013-08-31 10:46:00,
2013-08-31 06:51:00,77.1,74.9,29.92,NE,49,6.0,10.0,93,0.00,,,0.00,WUHU216DAVISVP2,2013-08-31 10:51:00,
2013-08-31 06:56:00,77.5,75.0,29.92,NE,52,7.0,10.0,92,0.00,,,0.00,WUHU216DAVISVP2,2013-08-31 10:56:00,
2013-08-31 07:01:00,77.8,74.9,29.93,NE,44,6.0,10.0,91,0.00,,,0.00,WUHU216DAVISVP2,2013-08-31 11:01:00,
2013-08-31 07:06:00,77.9,75.0,29.92,NE,54,5.0,9.0,91,0.00,,,0.00,WUHU216DAVISVP2,2013-08-31 11:06:00,
2013-08-31 07:11:00,78.2,75.3,29.92,NE,50,7.0,9.0,91,0.00,,,0.00,WUHU216DAVISVP2,2013-08-31 11:11:00,
2013-08-31 07:16:00,78.4,75.2,29.92,NE,55,7.0,8.0,90,0.00,,,0.00,WUHU216DAVISVP2,2013-08-31 11:16:00,
2013-08-31 07:21:00,78.6,75.4,29.93,ENE,58,6.0,8.0,90,0.00,,,0.00,WUHU216DAVISVP2,2013-08-31 11:21:00,
2013-08-31 07:26:00,78.8,75.6,29.93,ENE,57,6.0,8.0,90,0.00,,,0.00,WUHU216DAVISVP2,2013-08-31 11:26:00,
2013-08-31 07:31:00,78.9,75.7,29.93,NE,56,6.0,8.0,90,0.00,,,0.00,WUHU216DAVISVP2,2013-08-31 11:31:00,
2013-08-31 07:36:00,79.1,75.6,29.93,NE,51,6.0,8.0,89,0.00,,,0.00,WUHU216DAVISVP2,2013-08-31 11:36:00,
2013-08-31 07:41:00,79.2,75.7,29.93,NE,53,7.0,8.0,89,0.00,,,0.00,WUHU216DAVISVP2,2013-08-31 11:41:00,
2013-08-31 07:46:00,79.2,75.7,29.93,NE,50,7.0,8.0,89,0.00,,,0.00,WUHU216DAVISVP2,2013-08-31 11:46:00,
2013-08-31 07:51:00,79.3,75.8,29.93,NE,51,7.0,8.0,89,0.00,,,0.00,WUHU216DAVISVP2,2013-08-31 11:51:00,
2013-08-31 07:56:00,79.3,75.8,29.93,East,83,5.0,8.0,89,0.00,,,0.00,WUHU216DAVISVP2,2013-08-31 11:56:00,
2013-08-31 08:01:00,79.4,75.9,29.93,NE,41,7.0,8.0,89,0.00,,,0.00,WUHU216DAVISVP2,2013-08-31 12:01:00,
2013-08-31 08:06:00,79.5,76.0,29.93,NE,55,6.0,8.0,89,0.00,,,0.00,WUHU216DAVISVP2,2013-08-31 12:06:00,
2013-08-31 08:11:00,79.7,76.2,29.93,NE,54,6.0,8.0,89,0.00,,,0.00,WUHU216DAVISVP2,2013-08-31 12:11:00,
2013-08-31 08:16:00,79.7,75.8,29.93,NE,45,6.0,8.0,88,0.00,,,0.00,WUHU216DAVISVP2,2013-08-31 12:16:00,
2013-08-31 08:21:00,79.8,76.3,29.93,NE,56,5.0,8.0,89,0.00,,,0.00,WUHU216DAVISVP2,2013-08-31 12:21:00,
2013-08-31 08:26:00,80.0,76.1,29.93,ENE,57,6.0,8.0,88,0.00,,,0.00,WUHU216DAVISVP2,2013-08-31 12:26:00,
2013-08-31 08:31:00,80.4,76.5,29.93,NE,56,7.0,9.0,88,0.00,,,0.00,WUHU216DAVISVP2,2013-08-31 12:31:00,
2013-08-31 08:36:00,80.3,76.4,29.93,NE,39,7.0,9.0,88,0.00,,,0.00,WUHU216DAVISVP2,2013-08-31 12:36:00,
2013-08-31 08:41:00,80.2,76.0,29.93,NE,49,6.0,9.0,87,0.00,,,0.00,WUHU216DAVISVP2,2013-08-31 12:41:00,
2013-08-31 08:46:00,80.1,76.6,29.94,NE,42,7.0,9.0,89,0.00,,,0.00,WUHU216DAVISVP2,2013-08-31 12:46:00,
2013-08-31 08:51:00,80.1,76.6,29.93,NE,44,8.0,9.0,89,0.00,,,0.00,WUHU216DAVISVP2,2013-08-31 12:51:00,
2013-08-31 08:56:00,80.2,76.7,29.94,NE,56,7.0,9.0,89,0.00,,,0.00,WUHU216DAVISVP2,2013-08-31 12:56:00,
2013-08-31 09:01:00,80.5,77.3,29.94,NE,34,5.0,10.0,90,0.00,,,0.00,WUHU216DAVISVP2,2013-08-31 13:01:00,
2013-08-31 09:06:00,80.6,76.7,29.94,NE,50,6.0,11.0,88,0.00,,,0.00,WUHU216DAVISVP2,2013-08-31 13:06:00,
2013-08-31 09:11:00,80.7,76.8,29.94,NE,44,10.0,11.0,88,0.00,,,0.00,WUHU216DAVISVP2,2013-08-31 13:11:00,
2013-08-31 09:16:00,80.5,77.0,29.94,NE,49,9.0,11.0,89,0.00,,,0.00,WUHU216DAVISVP2,2013-08-31 13:16:00,
2013-08-31 09:21:00,80.3,76.8,29.94,NE,43,9.0,11.0,89,0.00,,,0.00,WUHU216DAVISVP2,2013-08-31 13:21:00,
2013-08-31 09:26:00,80.1,76.6,29.94,NE,44,9.0,11.0,89,0.00,,,0.00,WUHU216DAVISVP2,2013-08-31 13:26:00,
2013-08-31 09:31:00,80.0,76.8,29.95,NE,42,7.0,11.0,90,0.00,,,0.00,WUHU216DAVISVP2,2013-08-31 13:31:00,
2013-08-31 09:36:00,80.0,77.1,29.95,NE,48,10.0,10.0,91,0.00,,,0.00,WUHU216DAVISVP2,2013-08-31 13:36:00,
2013-08-31 09:41:00,79.9,77.0,29.95,NE,55,8.0,10.0,91,0.00,,,0.00,WUHU216DAVISVP2,2013-08-31 13:41:00,
2013-08-31 09:46:00,80.0,77.1,29.95,NE,41,8.0,10.0,91,0.00,,,0.00,WUHU216DAVISVP2,2013-08-31 13:46:00,
2013-08-31 09:51:00,80.1,76.9,29.95,NE,49,7.0,10.0,90,0.00,,,0.00,WUHU216DAVISVP2,2013-08-31 13:51:00,
2013-08-31 09:56:00,80.1,77.2,29.95,ENE,63,7.0,10.0,91,0.00,,,0.00,WUHU216DAVISVP2,2013-08-31 13:56:00,
2013-08-31 10:01:00,80.3,77.4,29.95,NE,53,8.0,9.0,91,0.00,,,0.00,WUHU216DAVISVP2,2013-08-31 14:01:00,
2013-08-31 10:06:00,80.6,77.4,29.95,ENE,57,7.0,9.0,90,0.00,,,0.00,WUHU216DAVISVP2,2013-08-31 14:06:00,
2013-08-31 10:11:00,80.8,77.6,29.95,NE,55,7.0,9.0,90,0.00,,,0.00,WUHU216DAVISVP2,2013-08-31 14:11:00,
2013-08-31 10:16:00,80.9,77.7,29.95,ENE,58,8.0,9.0,90,0.00,,,0.00,WUHU216DAVISVP2,2013-08-31 14:16:00,
2013-08-31 10:21:00,81.0,77.8,29.95,NE,49,4.0,9.0,90,0.00,,,0.00,WUHU216DAVISVP2,2013-08-31 14:21:00,
2013-08-31 10:26:00,81.1,77.2,29.95,NE,51,7.0,9.0,88,0.00,,,0.00,WUHU216DAVISVP2,2013-08-31 14:26:00,
2013-08-31 10:31:00,81.2,77.3,29.95,NE,45,5.0,9.0,88,0.00,,,0.00,WUHU216DAVISVP2,2013-08-31 14:31:00,
2013-08-31 10:36:00,81.1,77.6,29.95,ENE,60,8.0,9.0,89,0.00,,,0.00,WUHU216DAVISVP2,2013-08-31 14:36:00,
2013-08-31 10:41:00,81.1,77.2,29.95,NE,46,8.0,8.0,88,0.00,,,0.00,WUHU216DAVISVP2,2013-08-31 14:41:00,
2013-08-31 10:46:00,81.0,77.1,29.95,ENE,58,8.0,9.0,88,0.00,,,0.00,WUHU216DAVISVP2,2013-08-31 14:46:00,
2013-08-31 10:51:00,81.0,77.5,29.95,NE,53,8.0,9.0,89,0.00,,,0.00,WUHU216DAVISVP2,2013-08-31 14:51:00,
2013-08-31 10:56:00,80.9,77.4,29.95,NE,51,7.0,9.0,89,0.00,,,0.00,WUHU216DAVISVP2,2013-08-31 14:56:00,
2013-08-31 11:02:00,80.9,77.4,29.95,ENE,77,6.0,9.0,89,0.00,,,0.00,WUHU216DAVISVP2,2013-08-31 15:02:00,
2013-08-31 11:06:00,81.0,77.8,29.95,NE,51,8.0,9.0,90,0.00,,,0.00,WUHU216DAVISVP2,2013-08-31 15:06:00,
2013-08-31 11:11:00,81.1,77.6,29.95,NE,56,7.0,9.0,89,0.00,,,0.00,WUHU216DAVISVP2,2013-08-31 15:11:00,
2013-08-31 11:16:00,81.5,78.3,29.95,NE,53,7.0,9.0,90,0.00,,,0.00,WUHU216DAVISVP2,2013-08-31 15:16:00,
2013-08-31 11:21:00,81.5,77.9,29.95,NNE,26,3.0,9.0,89,0.00,,,0.00,WUHU216DAVISVP2,2013-08-31 15:21:00,
2013-08-31 11:26:00,81.8,77.9,29.95,ENE,64,7.0,8.0,88,0.00,,,0.00,WUHU216DAVISVP2,2013-08-31 15:26:00,
2013-08-31 11:31:00,81.8,77.9,29.95,NE,46,6.0,8.0,88,0.00,,,0.00,WUHU216DAVISVP2,2013-08-31 15:31:00,
2013-08-31 11:36:00,81.5,78.0,29.95,NE,41,7.0,8.0,89,0.00,,,0.00,WUHU216DAVISVP2,2013-08-31 15:36:00,
2013-08-31 11:41:00,81.3,77.4,29.95,NE,49,8.0,9.0,88,0.00,,,0.00,WUHU216DAVISVP2,2013-08-31 15:41:00,
2013-08-31 11:46:00,81.5,78.0,29.95,NE,50,8.0,9.0,89,0.00,,,0.00,WUHU216DAVISVP2,2013-08-31 15:46:00,
2013-08-31 11:51:00,81.5,78.0,29.95,NE,34,7.0,9.0,89,0.00,,,0.00,WUHU216DAVISVP2,2013-08-31 15:51:00,
2013-08-31 11:56:00,81.8,77.9,29.95,ENE,66,7.0,9.0,88,0.00,,,0.00,WUHU216DAVISVP2,2013-08-31 15:56:00,
2013-08-31 12:01:00,82.0,77.8,29.94,NE,49,7.0,9.0,87,0.00,,,0.00,WUHU216DAVISVP2,2013-08-31 16:01:00,
2013-08-31 12:06:00,82.1,77.9,29.94,ENE,70,5.0,9.0,87,0.00,,,0.00,WUHU216DAVISVP2,2013-08-31 16:06:00,
2013-08-31 12:11:00,82.2,78.0,29.94,ENE,63,6.0,9.0,87,0.00,,,0.00,WUHU216DAVISVP2,2013-08-31 16:11:00,
2013-08-31 12:16:00,82.2,77.6,29.94,NE,41,6.0,9.0,86,0.00,,,0.00,WUHU216DAVISVP2,2013-08-31 16:16:00,
2013-08-31 12:21:00,82.3,77.3,29.94,NE,56,5.0,9.0,85,0.00,,,0.00,WUHU216DAVISVP2,2013-08-31 16:21:00,
2013-08-31 12:26:00,82.4,77.5,29.94,East,98,7.0,9.0,85,0.00,,,0.00,WUHU216DAVISVP2,2013-08-31 16:26:00,
2013-08-31 12:31:00,82.5,76.9,29.94,East,85,7.0,9.0,83,0.00,,,0.00,WUHU216DAVISVP2,2013-08-31 16:31:00,
2013-08-31 12:36:00,82.7,76.7,29.94,ENE,75,7.0,9.0,82,0.00,,,0.00,WUHU216DAVISVP2,2013-08-31 16:36:00,
2013-08-31 12:41:00,82.8,76.8,29.94,ENE,63,7.0,9.0,82,0.00,,,0.00,WUHU216DAVISVP2,2013-08-31 16:41:00,
2013-08-31 12:46:00,83.0,77.0,29.93,NE,37,7.0,9.0,82,0.00,,,0.00,WUHU216DAVISVP2,2013-08-31 16:46:00,
2013-08-31 12:51:00,83.0,76.3,29.93,East,97,9.0,10.0,80,0.00,,,0.00,WUHU216DAVISVP2,2013-08-31 16:51:00,
2013-08-31 12:56:00,82.7,76.3,29.93,East,93,5.0,10.0,81,0.00,,,0.00,WUHU216DAVISVP2,2013-08-31 16:56:00,
2013-08-31 13:01:00,82.7,76.4,29.93,ENE,68,8.0,10.0,81,0.00,,,0.00,WUHU216DAVISVP2,2013-08-31 17:01:00,
2013-08-31 13:06:00,82.9,76.6,29.93,NE,55,6.0,10.0,81,0.00,,,0.00,WUHU216DAVISVP2,2013-08-31 17:06:00,
2013-08-31 13:11:00,83.1,76.8,29.93,East,79,6.0,10.0,81,0.00,,,0.00,WUHU216DAVISVP2,2013-08-31 17:11:00,
2013-08-31 13:16:00,83.2,76.5,29.93,ENE,74,8.0,10.0,80,0.00,,,0.00,WUHU216DAVISVP2,2013-08-31 17:16:00,
2013-08-31 13:21:00,83.3,77.0,29.93,ESE,114,8.0,10.0,81,0.00,,,0.00,WUHU216DAVISVP2,2013-08-31 17:21:00,
2013-08-31 13:26:00,83.4,77.0,29.93,ENE,65,9.0,10.0,81,0.00,,,0.00,WUHU216DAVISVP2,2013-08-31 17:26:00,
2013-08-31 13:31:00,83.1,76.8,29.93,NE,54,6.0,10.0,81,0.00,,,0.00,WUHU216DAVISVP2,2013-08-31 17:31:00,
2013-08-31 13:36:00,83.0,76.7,29.93,ENE,78,7.0,10.0,81,0.00,,,0.00,WUHU216DAVISVP2,2013-08-31 17:36:00,
2013-08-31 13:41:00,83.1,76.8,29.93,ESE,102,6.0,10.0,81,0.00,,,0.00,WUHU216DAVISVP2,2013-08-31 17:41:00,
2013-08-31 13:46:00,83.3,76.6,29.93,East,92,9.0,11.0,80,0.00,,,0.00,WUHU216DAVISVP2,2013-08-31 17:46:00,
2013-08-31 13:51:00,83.0,76.6,29.93,NE,40,6.0,11.0,81,0.00,,,0.00,WUHU216DAVISVP2,2013-08-31 17:51:00,
2013-08-31 13:56:00,82.9,76.9,29.92,North,7,9.0,11.0,82,0.00,,,0.00,WUHU216DAVISVP2,2013-08-31 17:56:00,
2013-08-31 14:01:00,83.0,77.0,29.92,ESE,122,7.0,12.0,82,0.00,,,0.00,WUHU216DAVISVP2,2013-08-31 18:01:00,
2013-08-31 14:06:00,82.8,76.8,29.92,ENE,71,11.0,12.0,82,0.00,,,0.00,WUHU216DAVISVP2,2013-08-31 18:06:00,
2013-08-31 14:11:00,82.8,76.8,29.92,East,82,11.0,12.0,82,0.00,,,0.00,WUHU216DAVISVP2,2013-08-31 18:11:00,
2013-08-31 14:16:00,82.8,76.8,29.92,East,99,10.0,12.0,82,0.00,,,0.00,WUHU216DAVISVP2,2013-08-31 18:16:00,
2013-08-31 14:21:00,82.8,76.7,29.92,ESE,110,11.0,12.0,82,0.00,,,0.00,WUHU216DAVISVP2,2013-08-31 18:21:00,
2013-08-31 14:26:00,82.9,77.3,29.92,NE,36,9.0,13.0,83,0.00,,,0.00,WUHU216DAVISVP2,2013-08-31 18:26:00,
2013-08-31 14:31:00,82.9,76.9,29.92,NE,51,10.0,13.0,82,0.00,,,0.00,WUHU216DAVISVP2,2013-08-31 18:31:00,
2013-08-31 14:36:00,82.8,77.2,29.91,ENE,72,11.0,13.0,83,0.00,,,0.00,WUHU216DAVISVP2,2013-08-31 18:36:00,
2013-08-31 14:41:00,82.9,77.2,29.91,ENE,72,10.0,13.0,83,0.00,,,0.00,WUHU216DAVISVP2,2013-08-31 18:41:00,
2013-08-31 14:46:00,82.9,76.8,29.91,NE,36,11.0,13.0,82,0.00,,,0.00,WUHU216DAVISVP2,2013-08-31 18:46:00,
2013-08-31 14:51:00,82.9,77.3,29.91,ENE,63,9.0,13.0,83,0.00,,,0.00,WUHU216DAVISVP2,2013-08-31 18:51:00,
2013-08-31 14:56:00,82.9,76.9,29.91,ESE,114,8.0,13.0,82,0.00,,,0.00,WUHU216DAVISVP2,2013-08-31 18:56:00,
2013-08-31 15:01:00,83.0,77.0,29.90,East,93,9.0,11.0,82,0.00,,,0.00,WUHU216DAVISVP2,2013-08-31 19:01:00,
2013-08-31 15:06:00,83.1,76.8,29.90,ESE,117,9.0,11.0,81,0.00,,,0.00,WUHU216DAVISVP2,2013-08-31 19:06:00,
2013-08-31 15:11:00,83.1,77.0,29.90,ENE,77,9.0,11.0,82,0.00,,,0.00,WUHU216DAVISVP2,2013-08-31 19:11:00,
2013-08-31 15:16:00,83.1,76.8,29.89,East,99,10.0,12.0,81,0.00,,,0.00,WUHU216DAVISVP2,2013-08-31 19:16:00,
2013-08-31 15:21:00,83.0,77.4,29.89,East,87,7.0,13.0,83,0.00,,,0.00,WUHU216DAVISVP2,2013-08-31 19:21:00,
2013-08-31 15:26:00,83.2,77.1,29.89,ENE,70,10.0,13.0,82,0.00,,,0.00,WUHU216DAVISVP2,2013-08-31 19:26:00,
2013-08-31 15:31:00,83.1,76.8,29.89,ESE,120,8.0,13.0,81,0.00,,,0.00,WUHU216DAVISVP2,2013-08-31 19:31:00,
2013-08-31 15:36:00,83.0,77.0,29.89,East,100,10.0,11.0,82,0.00,,,0.00,WUHU216DAVISVP2,2013-08-31 19:36:00,
2013-08-31 15:41:00,83.0,77.4,29.89,East,101,7.0,12.0,83,0.00,,,0.00,WUHU216DAVISVP2,2013-08-31 19:41:00,
2013-08-31 15:46:00,83.0,76.9,29.89,East,97,8.0,12.0,82,0.00,,,0.00,WUHU216DAVISVP2,2013-08-31 19:46:00,
2013-08-31 15:51:00,82.8,77.2,29.89,East,98,9.0,12.0,83,0.00,,,0.00,WUHU216DAVISVP2,2013-08-31 19:51:00,
2013-08-31 15:56:00,82.8,77.2,29.89,ESE,108,7.0,12.0,83,0.00,,,0.00,WUHU216DAVISVP2,2013-08-31 19:56:00,
2013-08-31 16:01:00,82.6,77.0,29.89,ENE,75,11.0,12.0,83,0.00,,,0.00,WUHU216DAVISVP2,2013-08-31 20:01:00,
2013-08-31 16:06:00,82.5,77.2,29.88,East,98,8.0,12.0,84,0.00,,,0.00,WUHU216DAVISVP2,2013-08-31 20:06:00,
2013-08-31 16:11:00,82.7,77.4,29.88,ESE,118,6.0,12.0,84,0.00,,,0.00,WUHU216DAVISVP2,2013-08-31 20:11:00,
2013-08-31 16:16:00,83.0,77.7,29.88,East,80,8.0,12.0,84,0.00,,,0.00,WUHU216DAVISVP2,2013-08-31 20:16:00,
2013-08-31 16:21:00,83.0,77.7,29.88,East,100,9.0,11.0,84,0.00,,,0.00,WUHU216DAVISVP2,2013-08-31 20:21:00,
2013-08-31 16:26:00,82.9,77.6,29.88,ENE,60,8.0,11.0,84,0.00,,,0.00,WUHU216DAVISVP2,2013-08-31 20:26:00,
2013-08-31 16:31:00,82.9,77.6,29.88,ENE,70,8.0,10.0,84,0.00,,,0.00,WUHU216DAVISVP2,2013-08-31 20:31:00,
2013-08-31 16:36:00,82.6,76.6,29.88,East,99,12.0,12.0,82,0.00,,,0.00,WUHU216DAVISVP2,2013-08-31 20:36:00,
2013-08-31 16:41:00,82.5,76.9,29.88,East,100,8.0,13.0,83,0.00,,,0.00,WUHU216DAVISVP2,2013-08-31 20:41:00,
2013-08-31 16:46:00,82.5,76.9,29.88,East,101,11.0,13.0,83,0.00,,,0.00,WUHU216DAVISVP2,2013-08-31 20:46:00,
2013-08-31 16:51:00,82.5,76.5,29.88,ESE,109,9.0,13.0,82,0.00,,,0.00,WUHU216DAVISVP2,2013-08-31 20:51:00,
2013-08-31 16:56:00,82.5,76.5,29.88,ESE,115,5.0,12.0,82,0.00,,,0.00,WUHU216DAVISVP2,2013-08-31 20:56:00,
2013-08-31 17:01:00,82.5,76.5,29.87,East,84,6.0,11.0,82,0.00,,,0.00,WUHU216DAVISVP2,2013-08-31 21:01:00,
2013-08-31 17:06:00,82.5,76.4,29.87,East,101,6.0,10.0,82,0.00,,,0.00,WUHU216DAVISVP2,2013-08-31 21:06:00,
2013-08-31 17:11:00,82.5,76.9,29.87,ESE,102,9.0,10.0,83,0.00,,,0.00,WUHU216DAVISVP2,2013-08-31 21:11:00,
2013-08-31 17:16:00,82.4,76.1,29.87,ESE,120,6.0,10.0,81,0.00,,,0.00,WUHU216DAVISVP2,2013-08-31 21:16:00,
2013-08-31 17:21:00,82.4,76.8,29.87,ESE,105,4.0,10.0,83,0.00,,,0.00,WUHU216DAVISVP2,2013-08-31 21:21:00,
2013-08-31 17:26:00,82.5,76.5,29.87,East,98,10.0,10.0,82,0.00,,,0.00,WUHU216DAVISVP2,2013-08-31 21:26:00,
2013-08-31 17:31:00,82.6,76.6,29.88,East,99,10.0,11.0,82,0.00,,,0.00,WUHU216DAVISVP2,2013-08-31 21:31:00,
2013-08-31 17:36:00,82.3,76.3,29.88,East,101,9.0,11.0,82,0.00,,,0.00,WUHU216DAVISVP2,2013-08-31 21:36:00,
2013-08-31 17:41:00,82.3,76.7,29.88,ESE,111,9.0,11.0,83,0.00,,,0.00,WUHU216DAVISVP2,2013-08-31 21:41:00,
2013-08-31 17:46:00,82.1,76.2,29.88,SE,128,9.0,11.0,82,0.00,,,0.00,WUHU216DAVISVP2,2013-08-31 21:46:00,
2013-08-31 17:51:00,82.0,76.1,29.88,ESE,122,8.0,11.0,82,0.00,,,0.00,WUHU216DAVISVP2,2013-08-31 21:51:00,
2013-08-31 17:56:00,81.9,76.0,29.88,SE,138,9.0,11.0,82,0.00,,,0.00,WUHU216DAVISVP2,2013-08-31 21:56:00,
2013-08-31 18:01:00,81.9,75.6,29.88,SE,140,9.0,11.0,81,0.00,,,0.00,WUHU216DAVISVP2,2013-08-31 22:01:00,
2013-08-31 18:06:00,82.1,75.8,29.88,SSE,148,9.0,11.0,81,0.00,,,0.00,WUHU216DAVISVP2,2013-08-31 22:06:00,
2013-08-31 18:11:00,82.1,75.8,29.88,SE,131,7.0,11.0,81,0.00,,,0.00,WUHU216DAVISVP2,2013-08-31 22:11:00,
2013-08-31 18:16:00,82.1,76.2,29.88,SSE,152,9.0,11.0,82,0.00,,,0.00,WUHU216DAVISVP2,2013-08-31 22:16:00,
2013-08-31 18:21:00,82.2,76.6,29.88,SSE,155,10.0,11.0,83,0.00,,,0.00,WUHU216DAVISVP2,2013-08-31 22:21:00,
2013-08-31 18:26:00,82.1,76.5,29.88,SE,142,8.0,11.0,83,0.00,,,0.00,WUHU216DAVISVP2,2013-08-31 22:26:00,
2013-08-31 18:31:00,82.1,76.9,29.88,SE,146,9.0,11.0,84,0.00,,,0.00,WUHU216DAVISVP2,2013-08-31 22:31:00,
2013-08-31 18:36:00,82.1,76.5,29.88,SE,135,7.0,11.0,83,0.00,,,0.00,WUHU216DAVISVP2,2013-08-31 22:36:00,
2013-08-31 18:41:00,82.0,76.8,29.88,SE,142,8.0,11.0,84,0.00,,,0.00,WUHU216DAVISVP2,2013-08-31 22:41:00,
2013-08-31 18:46:00,81.9,76.7,29.88,SE,135,6.0,10.0,84,0.00,,,0.00,WUHU216DAVISVP2,2013-08-31 22:46:00,
2013-08-31 18:51:00,81.9,77.0,29.88,SE,144,6.0,10.0,85,0.00,,,0.00,WUHU216DAVISVP2,2013-08-31 22:51:00,
2013-08-31 18:56:00,81.9,76.7,29.88,SE,144,6.0,9.0,84,0.00,,,0.00,WUHU216DAVISVP2,2013-08-31 22:56:00,
2013-08-31 19:01:00,81.9,76.7,29.88,SE,134,7.0,7.0,84,0.00,,,0.00,WUHU216DAVISVP2,2013-08-31 23:01:00,
2013-08-31 19:06:00,81.9,77.0,29.88,SE,142,4.0,7.0,85,0.00,,,0.00,WUHU216DAVISVP2,2013-08-31 23:06:00,
2013-08-31 19:11:00,81.9,77.0,29.89,SE,145,6.0,7.0,85,0.00,,,0.00,WUHU216DAVISVP2,2013-08-31 23:11:00,
2013-08-31 19:16:00,81.9,76.9,29.88,SE,142,7.0,7.0,85,0.00,,,0.00,WUHU216DAVISVP2,2013-08-31 23:16:00,
2013-08-31 19:21:00,81.5,76.6,29.88,SE,144,6.0,8.0,85,0.00,,,0.00,WUHU216DAVISVP2,2013-08-31 23:21:00,
2013-08-31 19:26:00,81.2,76.7,29.88,SE,144,5.0,8.0,86,0.00,,,0.00,WUHU216DAVISVP2,2013-08-31 23:26:00,
2013-08-31 19:31:00,81.0,76.8,29.88,SE,134,7.0,9.0,87,0.00,,,0.00,WUHU216DAVISVP2,2013-08-31 23:31:00,
2013-08-31 19:36:00,80.8,76.9,29.88,SSE,148,7.0,9.0,88,0.00,,,0.00,WUHU216DAVISVP2,2013-08-31 23:36:00,
2013-08-31 19:41:00,80.8,76.9,29.88,SE,126,7.0,9.0,88,0.00,,,0.00,WUHU216DAVISVP2,2013-08-31 23:41:00,
2013-08-31 19:46:00,80.6,76.7,29.88,SE,139,7.0,9.0,88,0.00,,,0.00,WUHU216DAVISVP2,2013-08-31 23:46:00,
2013-08-31 19:51:00,80.6,77.1,29.88,SE,124,6.0,8.0,89,0.00,,,0.00,WUHU216DAVISVP2,2013-08-31 23:51:00,
2013-08-31 19:56:00,80.6,77.1,29.88,SSE,155,5.0,8.0,89,0.00,,,0.00,WUHU216DAVISVP2,2013-08-31 23:56:00,
2013-08-31 20:02:00,80.4,76.9,29.88,SE,145,8.0,8.0,89,0.00,,,0.00,WUHU216DAVISVP2,2013-09-01 00:02:00,
2013-08-31 20:07:00,80.4,77.2,29.89,SSE,150,9.0,10.0,90,0.00,,,0.00,WUHU216DAVISVP2,2013-09-01 00:07:00,
2013-08-31 20:11:00,80.4,77.2,29.89,SSE,152,6.0,10.0,90,0.00,,,0.00,WUHU216DAVISVP2,2013-09-01 00:11:00,
2013-08-31 20:16:00,80.3,77.1,29.89,SSE,162,4.0,10.0,90,0.00,,,0.00,WUHU216DAVISVP2,2013-09-01 00:16:00,
2013-08-31 20:21:00,80.3,77.1,29.89,SSW,198,6.0,10.0,90,0.00,,,0.00,WUHU216DAVISVP2,2013-09-01 00:21:00,
2013-08-31 20:26:00,80.1,76.6,29.89,SW,218,1.0,9.0,89,0.00,,,0.00,WUHU216DAVISVP2,2013-09-01 00:26:00,
2013-08-31 20:31:00,80.1,76.6,29.89,SE,146,1.0,8.0,89,0.00,,,0.00,WUHU216DAVISVP2,2013-09-01 00:31:00,
2013-08-31 20:36:00,80.1,76.6,29.90,SSE,162,5.0,7.0,89,0.00,,,0.00,WUHU216DAVISVP2,2013-09-01 00:36:00,
2013-08-31 20:41:00,80.2,77.0,29.90,SSW,193,2.0,7.0,90,0.00,,,0.00,WUHU216DAVISVP2,2013-09-01 00:41:00,
2013-08-31 20:46:00,80.3,77.1,29.89,SSE,150,4.0,7.0,90,0.00,,,0.00,WUHU216DAVISVP2,2013-09-01 00:46:00,
2013-08-31 20:51:00,80.3,77.1,29.89,SW,235,1.0,7.0,90,0.00,,,0.00,WUHU216DAVISVP2,2013-09-01 00:51:00,
2013-08-31 20:56:00,80.2,76.7,29.89,SW,215,2.0,7.0,89,0.00,,,0.00,WUHU216DAVISVP2,2013-09-01 00:56:00,
2013-08-31 21:01:00,80.1,76.6,29.89,WSW,250,3.0,6.0,89,0.00,,,0.00,WUHU216DAVISVP2,2013-09-01 01:01:00,
2013-08-31 21:06:00,80.0,76.5,29.89,WSW,247,2.0,6.0,89,0.00,,,0.00,WUHU216DAVISVP2,2013-09-01 01:06:00,
2013-08-31 21:11:00,79.9,76.4,29.89,SW,230,4.0,5.0,89,0.00,,,0.00,WUHU216DAVISVP2,2013-09-01 01:11:00,
2013-08-31 21:16:00,79.9,76.7,29.89,SW,230,4.0,5.0,90,0.00,,,0.00,WUHU216DAVISVP2,2013-09-01 01:16:00,
2013-08-31 21:21:00,79.8,76.6,29.90,West,269,2.0,5.0,90,0.00,,,0.00,WUHU216DAVISVP2,2013-09-01 01:21:00,
2013-08-31 21:26:00,79.7,76.5,29.90,West,262,2.0,5.0,90,0.00,,,0.00,WUHU216DAVISVP2,2013-09-01 01:26:00,
2013-08-31 21:31:00,79.7,76.5,29.90,SW,217,1.0,5.0,90,0.00,,,0.00,WUHU216DAVISVP2,2013-09-01 01:31:00,
2013-08-31 21:37:00,79.7,76.5,29.90,SSW,197,0.0,4.0,90,0.00,,,0.00,WUHU216DAVISVP2,2013-09-01 01:37:00,
2013-08-31 21:42:00,79.6,76.4,29.89,SW,231,3.0,5.0,90,0.00,,,0.00,WUHU216DAVISVP2,2013-09-01 01:42:00,
2013-08-31 21:46:00,79.6,76.4,29.89,SSW,195,4.0,6.0,90,0.00,,,0.00,WUHU216DAVISVP2,2013-09-01 01:46:00,
2013-08-31 21:51:00,79.5,76.3,29.89,SW,224,3.0,6.0,90,0.00,,,0.00,WUHU216DAVISVP2,2013-09-01 01:51:00,
2013-08-31 21:56:00,79.6,76.4,29.90,SSW,213,3.0,6.0,90,0.00,,,0.00,WUHU216DAVISVP2,2013-09-01 01:56:00,
2013-08-31 22:01:00,79.6,76.4,29.90,South,169,3.0,6.0,90,0.00,,,0.00,WUHU216DAVISVP2,2013-09-01 02:01:00,
2013-08-31 22:06:00,79.4,76.2,29.90,SSW,195,3.0,6.0,90,0.00,,,0.00,WUHU216DAVISVP2,2013-09-01 02:06:00,
2013-08-31 22:11:00,79.4,76.2,29.90,SW,229,2.0,8.0,90,0.00,,,0.00,WUHU216DAVISVP2,2013-09-01 02:11:00,
2013-08-31 22:16:00,79.4,75.9,29.89,SW,221,5.0,8.0,89,0.00,,,0.00,WUHU216DAVISVP2,2013-09-01 02:16:00,
2013-08-31 22:21:00,79.4,76.2,29.90,WSW,250,3.0,8.0,90,0.00,,,0.00,WUHU216DAVISVP2,2013-09-01 02:21:00,
2013-08-31 22:26:00,79.4,75.9,29.90,WSW,241,3.0,8.0,89,0.00,,,0.00,WUHU216DAVISVP2,2013-09-01 02:26:00,
2013-08-31 22:31:00,79.3,76.1,29.90,WSW,250,4.0,7.0,90,0.00,,,0.00,WUHU216DAVISVP2,2013-09-01 02:31:00,
2013-08-31 22:36:00,79.3,76.1,29.91,SW,220,3.0,7.0,90,0.00,,,0.00,WUHU216DAVISVP2,2013-09-01 02:36:00,
2013-08-31 22:41:00,79.3,76.1,29.90,SW,225,5.0,7.0,90,0.00,,,0.00,WUHU216DAVISVP2,2013-09-01 02:41:00,
2013-08-31 22:46:00,79.2,75.7,29.90,SW,233,5.0,7.0,89,0.00,,,0.00,WUHU216DAVISVP2,2013-09-01 02:46:00,
2013-08-31 22:51:00,79.2,75.7,29.90,SSW,205,5.0,7.0,89,0.00,,,0.00,WUHU216DAVISVP2,2013-09-01 02:51:00,
2013-08-31 22:56:00,79.2,76.0,29.90,SW,222,3.0,8.0,90,0.00,,,0.00,WUHU216DAVISVP2,2013-09-01 02:56:00,
2013-08-31 23:01:00,79.2,76.0,29.90,WSW,238,4.0,8.0,90,0.00,,,0.00,WUHU216DAVISVP2,2013-09-01 03:01:00,
2013-08-31 23:06:00,79.2,76.0,29.91,SW,234,6.0,8.0,90,0.00,,,0.00,WUHU216DAVISVP2,2013-09-01 03:06:00,
2013-08-31 23:11:00,79.2,76.0,29.91,SSW,203,3.0,7.0,90,0.00,,,0.00,WUHU216DAVISVP2,2013-09-01 03:11:00,
2013-08-31 23:16:00,79.2,76.3,29.91,WSW,255,5.0,7.0,91,0.00,,,0.00,WUHU216DAVISVP2,2013-09-01 03:16:00,
2013-08-31 23:21:00,79.1,76.2,29.90,West,259,4.0,7.0,91,0.00,,,0.00,WUHU216DAVISVP2,2013-09-01 03:21:00,
2013-08-31 23:26:00,79.1,76.2,29.91,WSW,238,4.0,7.0,91,0.00,,,0.00,WUHU216DAVISVP2,2013-09-01 03:26:00,
2013-08-31 23:31:00,79.1,76.6,29.91,SW,230,3.0,7.0,92,0.00,,,0.00,WUHU216DAVISVP2,2013-09-01 03:31:00,
2013-08-31 23:36:00,79.1,76.6,29.91,WSW,253,4.0,7.0,92,0.00,,,0.00,WUHU216DAVISVP2,2013-09-01 03:36:00,
2013-08-31 23:41:00,79.1,76.6,29.91,SW,219,7.0,8.0,92,0.00,,,0.00,WUHU216DAVISVP2,2013-09-01 03:41:00,
2013-08-31 23:46:00,79.2,76.7,29.91,SW,217,8.0,9.0,92,0.00,,,0.00,WUHU216DAVISVP2,2013-09-01 03:46:00,
2013-08-31 23:51:00,79.2,76.7,29.90,WSW,248,7.0,9.0,92,0.00,,,0.00,WUHU216DAVISVP2,2013-09-01 03:51:00,
2013-08-31 23:56:00,79.3,76.8,29.91,WSW,238,11.0,11.0,92,0.00,,,0.00,WUHU216DAVISVP2,2013-09-01 03:56:00,